sensor_id;sensor_type;location;lat;lon;timestamp;P1;durP1;ratioP1;P2;durP2;ratioP2
42488;SDS011;28118;52.388;9.452;2022-10-14T00:02:13;20.40;;;18.13;;
42488;SDS011;28118;52.388;9.452;2022-10-14T00:04:40;25.23;;;17.90;;
42488;SDS011;28118;52.388;9.452;2022-10-14T00:07:07;23.95;;;18.30;;
42488;SDS011;28118;52.388;9.452;2022-10-14T00:09:33;28.27;;;16.88;;
42488;SDS011;28118;52.388;9.452;2022-10-14T00:12:00;24.25;;;15.27;;
42488;SDS011;28118;52.388;9.452;2022-10-14T00:14:27;29.65;;;17.75;;
42488;SDS011;28118;52.388;9.452;2022-10-14T00:16:53;26.63;;;16.27;;
42488;SDS011;28118;52.388;9.452;2022-10-14T00:19:20;27.40;;;20.00;;
42488;SDS011;28118;52.388;9.452;2022-10-14T00:21:47;26.58;;;15.50;;
42488;SDS011;28118;52.388;9.452;2022-10-14T00:24:14;20.52;;;16.00;;
42488;SDS011;28118;52.388;9.452;2022-10-14T00:26:42;17.65;;;15.95;;
42488;SDS011;28118;52.388;9.452;2022-10-14T00:29:11;19.42;;;17.40;;
42488;SDS011;28118;52.388;9.452;2022-10-14T00:31:40;22.67;;;18.45;;
42488;SDS011;28118;52.388;9.452;2022-10-14T00:34:06;22.33;;;18.42;;
42488;SDS011;28118;52.388;9.452;2022-10-14T00:36:33;22.95;;;16.52;;
42488;SDS011;28118;52.388;9.452;2022-10-14T00:38:59;21.85;;;19.35;;
42488;SDS011;28118;52.388;9.452;2022-10-14T00:41:27;21.35;;;18.60;;
42488;SDS011;28118;52.388;9.452;2022-10-14T00:46:27;27.75;;;19.80;;
42488;SDS011;28118;52.388;9.452;2022-10-14T00:49:06;18.55;;;16.05;;
42488;SDS011;28118;52.388;9.452;2022-10-14T00:51:37;27.50;;;19.20;;
42488;SDS011;28118;52.388;9.452;2022-10-14T00:54:06;18.48;;;16.80;;
42488;SDS011;28118;52.388;9.452;2022-10-14T00:56:33;20.48;;;18.35;;
42488;SDS011;28118;52.388;9.452;2022-10-14T00:59:01;31.52;;;19.42;;
42488;SDS011;28118;52.388;9.452;2022-10-14T01:01:29;23.85;;;21.05;;
42488;SDS011;28118;52.388;9.452;2022-10-14T01:03:56;32.28;;;23.50;;
42488;SDS011;28118;52.388;9.452;2022-10-14T01:06:42;26.65;;;22.63;;
42488;SDS011;28118;52.388;9.452;2022-10-14T01:11:59;26.70;;;22.15;;
42488;SDS011;28118;52.388;9.452;2022-10-14T01:15:00;23.27;;;20.42;;
42488;SDS011;28118;52.388;9.452;2022-10-14T01:18:23;26.42;;;20.45;;
42488;SDS011;28118;52.388;9.452;2022-10-14T01:26:43;31.08;;;24.50;;
42488;SDS011;28118;52.388;9.452;2022-10-14T01:31:49;31.42;;;24.27;;
42488;SDS011;28118;52.388;9.452;2022-10-14T01:34:37;42.83;;;25.75;;
42488;SDS011;28118;52.388;9.452;2022-10-14T01:37:20;33.47;;;24.85;;
42488;SDS011;28118;52.388;9.452;2022-10-14T01:39:51;28.48;;;25.40;;
42488;SDS011;28118;52.388;9.452;2022-10-14T01:42:25;32.97;;;24.30;;
42488;SDS011;28118;52.388;9.452;2022-10-14T01:44:57;29.17;;;24.73;;
42488;SDS011;28118;52.388;9.452;2022-10-14T01:47:31;38.60;;;26.50;;
42488;SDS011;28118;52.388;9.452;2022-10-14T01:50:10;35.50;;;25.88;;
42488;SDS011;28118;52.388;9.452;2022-10-14T01:52:45;30.48;;;22.33;;
42488;SDS011;28118;52.388;9.452;2022-10-14T01:55:18;32.05;;;25.25;;
42488;SDS011;28118;52.388;9.452;2022-10-14T01:57:50;32.05;;;25.73;;
42488;SDS011;28118;52.388;9.452;2022-10-14T02:00:18;29.50;;;24.33;;
42488;SDS011;28118;52.388;9.452;2022-10-14T02:02:45;31.20;;;25.85;;
42488;SDS011;28118;52.388;9.452;2022-10-14T02:05:17;34.20;;;26.08;;
42488;SDS011;28118;52.388;9.452;2022-10-14T02:07:55;30.10;;;24.30;;
42488;SDS011;28118;52.388;9.452;2022-10-14T02:10:28;44.47;;;26.85;;
42488;SDS011;28118;52.388;9.452;2022-10-14T02:13:24;35.85;;;25.05;;
42488;SDS011;28118;52.388;9.452;2022-10-14T02:19:23;37.03;;;26.00;;
42488;SDS011;28118;52.388;9.452;2022-10-14T02:21:56;29.83;;;21.77;;
42488;SDS011;28118;52.388;9.452;2022-10-14T02:24:41;27.65;;;23.83;;
42488;SDS011;28118;52.388;9.452;2022-10-14T02:27:15;44.75;;;23.92;;
42488;SDS011;28118;52.388;9.452;2022-10-14T02:29:45;21.58;;;19.30;;
42488;SDS011;28118;52.388;9.452;2022-10-14T02:32:13;34.50;;;24.73;;
42488;SDS011;28118;52.388;9.452;2022-10-14T02:34:46;31.70;;;24.27;;
42488;SDS011;28118;52.388;9.452;2022-10-14T02:37:17;24.80;;;21.83;;
42488;SDS011;28118;52.388;9.452;2022-10-14T02:39:46;27.98;;;22.75;;
42488;SDS011;28118;52.388;9.452;2022-10-14T02:42:26;29.90;;;23.77;;
42488;SDS011;28118;52.388;9.452;2022-10-14T02:44:54;26.45;;;23.25;;
42488;SDS011;28118;52.388;9.452;2022-10-14T02:47:23;28.75;;;23.77;;
42488;SDS011;28118;52.388;9.452;2022-10-14T02:49:50;28.30;;;23.75;;
42488;SDS011;28118;52.388;9.452;2022-10-14T02:52:17;28.40;;;25.42;;
42488;SDS011;28118;52.388;9.452;2022-10-14T02:54:45;32.35;;;24.00;;
42488;SDS011;28118;52.388;9.452;2022-10-14T02:57:12;29.23;;;24.63;;
42488;SDS011;28118;52.388;9.452;2022-10-14T02:59:38;27.88;;;24.55;;
42488;SDS011;28118;52.388;9.452;2022-10-14T03:02:05;33.38;;;23.75;;
42488;SDS011;28118;52.388;9.452;2022-10-14T03:04:33;34.45;;;25.58;;
42488;SDS011;28118;52.388;9.452;2022-10-14T03:07:00;35.50;;;28.42;;
42488;SDS011;28118;52.388;9.452;2022-10-14T03:09:27;36.70;;;29.33;;
42488;SDS011;28118;52.388;9.452;2022-10-14T03:11:53;36.47;;;27.30;;
42488;SDS011;28118;52.388;9.452;2022-10-14T03:14:20;38.15;;;24.58;;
42488;SDS011;28118;52.388;9.452;2022-10-14T03:16:46;34.65;;;27.30;;
42488;SDS011;28118;52.388;9.452;2022-10-14T03:19:13;36.53;;;27.90;;
42488;SDS011;28118;52.388;9.452;2022-10-14T03:21:40;29.88;;;24.25;;
42488;SDS011;28118;52.388;9.452;2022-10-14T03:24:07;33.17;;;27.85;;
42488;SDS011;28118;52.388;9.452;2022-10-14T03:26:34;33.33;;;23.65;;
42488;SDS011;28118;52.388;9.452;2022-10-14T03:29:01;40.50;;;28.30;;
42488;SDS011;28118;52.388;9.452;2022-10-14T03:31:27;33.30;;;28.52;;
42488;SDS011;28118;52.388;9.452;2022-10-14T03:33:54;28.85;;;25.15;;
42488;SDS011;28118;52.388;9.452;2022-10-14T03:36:21;35.05;;;29.02;;
42488;SDS011;28118;52.388;9.452;2022-10-14T03:38:47;34.90;;;27.02;;
42488;SDS011;28118;52.388;9.452;2022-10-14T03:41:14;37.22;;;28.65;;
42488;SDS011;28118;52.388;9.452;2022-10-14T03:43:40;34.35;;;28.73;;
42488;SDS011;28118;52.388;9.452;2022-10-14T03:46:07;39.40;;;29.67;;
42488;SDS011;28118;52.388;9.452;2022-10-14T03:48:33;34.00;;;27.45;;
42488;SDS011;28118;52.388;9.452;2022-10-14T03:51:00;35.60;;;28.45;;
42488;SDS011;28118;52.388;9.452;2022-10-14T03:53:27;37.63;;;30.15;;
42488;SDS011;28118;52.388;9.452;2022-10-14T03:55:53;45.65;;;27.02;;
42488;SDS011;28118;52.388;9.452;2022-10-14T03:58:20;34.03;;;26.92;;
42488;SDS011;28118;52.388;9.452;2022-10-14T04:00:46;39.20;;;30.15;;
42488;SDS011;28118;52.388;9.452;2022-10-14T04:03:13;28.33;;;24.50;;
42488;SDS011;28118;52.388;9.452;2022-10-14T04:05:40;34.50;;;29.45;;
42488;SDS011;28118;52.388;9.452;2022-10-14T04:08:06;39.38;;;28.98;;
42488;SDS011;28118;52.388;9.452;2022-10-14T04:10:33;35.33;;;27.42;;
42488;SDS011;28118;52.388;9.452;2022-10-14T04:13:00;33.05;;;28.10;;
42488;SDS011;28118;52.388;9.452;2022-10-14T04:15:27;38.50;;;28.48;;
42488;SDS011;28118;52.388;9.452;2022-10-14T04:17:54;35.30;;;28.33;;
42488;SDS011;28118;52.388;9.452;2022-10-14T04:20:21;38.72;;;26.30;;
42488;SDS011;28118;52.388;9.452;2022-10-14T04:22:48;40.25;;;31.67;;
42488;SDS011;28118;52.388;9.452;2022-10-14T04:25:14;35.97;;;26.38;;
42488;SDS011;28118;52.388;9.452;2022-10-14T04:27:41;44.85;;;34.25;;
42488;SDS011;28118;52.388;9.452;2022-10-14T04:30:08;34.83;;;27.90;;
42488;SDS011;28118;52.388;9.452;2022-10-14T04:32:35;34.83;;;30.23;;
42488;SDS011;28118;52.388;9.452;2022-10-14T04:35:02;39.47;;;29.75;;
42488;SDS011;28118;52.388;9.452;2022-10-14T04:37:30;47.50;;;30.83;;
42488;SDS011;28118;52.388;9.452;2022-10-14T04:39:57;41.95;;;29.65;;
42488;SDS011;28118;52.388;9.452;2022-10-14T04:42:23;37.22;;;28.67;;
42488;SDS011;28118;52.388;9.452;2022-10-14T04:44:50;39.58;;;27.17;;
42488;SDS011;28118;52.388;9.452;2022-10-14T04:47:17;39.00;;;31.73;;
42488;SDS011;28118;52.388;9.452;2022-10-14T04:49:43;39.17;;;29.48;;
42488;SDS011;28118;52.388;9.452;2022-10-14T04:52:10;37.55;;;25.80;;
42488;SDS011;28118;52.388;9.452;2022-10-14T04:54:36;40.13;;;29.65;;
42488;SDS011;28118;52.388;9.452;2022-10-14T04:57:03;41.40;;;29.60;;
42488;SDS011;28118;52.388;9.452;2022-10-14T04:59:30;36.42;;;29.65;;
42488;SDS011;28118;52.388;9.452;2022-10-14T05:01:56;36.50;;;28.35;;
42488;SDS011;28118;52.388;9.452;2022-10-14T05:04:23;36.88;;;26.83;;
42488;SDS011;28118;52.388;9.452;2022-10-14T05:06:50;38.00;;;28.02;;
42488;SDS011;28118;52.388;9.452;2022-10-14T05:09:16;41.80;;;28.35;;
42488;SDS011;28118;52.388;9.452;2022-10-14T05:11:43;37.78;;;29.67;;
42488;SDS011;28118;52.388;9.452;2022-10-14T05:14:09;35.65;;;29.23;;
42488;SDS011;28118;52.388;9.452;2022-10-14T05:16:36;40.78;;;30.10;;
42488;SDS011;28118;52.388;9.452;2022-10-14T05:19:03;38.25;;;28.58;;
42488;SDS011;28118;52.388;9.452;2022-10-14T05:21:29;33.40;;;26.35;;
42488;SDS011;28118;52.388;9.452;2022-10-14T05:23:56;33.05;;;26.90;;
42488;SDS011;28118;52.388;9.452;2022-10-14T05:26:23;39.05;;;31.55;;
42488;SDS011;28118;52.388;9.452;2022-10-14T05:28:50;32.25;;;23.85;;
42488;SDS011;28118;52.388;9.452;2022-10-14T05:31:17;44.38;;;32.38;;
42488;SDS011;28118;52.388;9.452;2022-10-14T05:33:44;39.33;;;29.98;;
42488;SDS011;28118;52.388;9.452;2022-10-14T05:36:11;44.97;;;32.00;;
42488;SDS011;28118;52.388;9.452;2022-10-14T05:38:38;36.58;;;28.13;;
42488;SDS011;28118;52.388;9.452;2022-10-14T05:41:05;48.80;;;28.98;;
42488;SDS011;28118;52.388;9.452;2022-10-14T05:43:32;41.53;;;31.77;;
42488;SDS011;28118;52.388;9.452;2022-10-14T05:45:59;46.05;;;34.30;;
42488;SDS011;28118;52.388;9.452;2022-10-14T05:48:26;43.33;;;29.05;;
42488;SDS011;28118;52.388;9.452;2022-10-14T05:50:53;42.40;;;27.23;;
42488;SDS011;28118;52.388;9.452;2022-10-14T05:53:20;41.58;;;31.05;;
42488;SDS011;28118;52.388;9.452;2022-10-14T05:55:47;37.92;;;27.23;;
42488;SDS011;28118;52.388;9.452;2022-10-14T05:58:14;43.45;;;31.50;;
42488;SDS011;28118;52.388;9.452;2022-10-14T06:00:41;35.08;;;30.35;;
42488;SDS011;28118;52.388;9.452;2022-10-14T06:03:09;46.42;;;32.75;;
42488;SDS011;28118;52.388;9.452;2022-10-14T06:05:37;34.88;;;27.92;;
42488;SDS011;28118;52.388;9.452;2022-10-14T06:08:04;45.28;;;33.03;;
42488;SDS011;28118;52.388;9.452;2022-10-14T06:10:31;36.22;;;26.67;;
42488;SDS011;28118;52.388;9.452;2022-10-14T06:12:59;33.28;;;27.23;;
42488;SDS011;28118;52.388;9.452;2022-10-14T06:15:26;42.17;;;28.08;;
42488;SDS011;28118;52.388;9.452;2022-10-14T06:17:53;40.72;;;30.83;;
42488;SDS011;28118;52.388;9.452;2022-10-14T06:20:20;42.53;;;31.00;;
42488;SDS011;28118;52.388;9.452;2022-10-14T06:22:47;45.47;;;31.88;;
42488;SDS011;28118;52.388;9.452;2022-10-14T06:25:14;42.72;;;33.83;;
42488;SDS011;28118;52.388;9.452;2022-10-14T06:27:41;39.70;;;26.60;;
42488;SDS011;28118;52.388;9.452;2022-10-14T06:30:08;44.40;;;31.60;;
42488;SDS011;28118;52.388;9.452;2022-10-14T06:32:35;45.33;;;33.40;;
42488;SDS011;28118;52.388;9.452;2022-10-14T06:35:02;46.45;;;33.60;;
42488;SDS011;28118;52.388;9.452;2022-10-14T06:37:29;50.83;;;31.25;;
42488;SDS011;28118;52.388;9.452;2022-10-14T06:39:56;44.90;;;32.55;;
42488;SDS011;28118;52.388;9.452;2022-10-14T06:42:23;37.38;;;32.10;;
42488;SDS011;28118;52.388;9.452;2022-10-14T06:44:50;45.28;;;30.02;;
42488;SDS011;28118;52.388;9.452;2022-10-14T06:47:17;41.53;;;27.75;;
42488;SDS011;28118;52.388;9.452;2022-10-14T06:49:44;37.78;;;31.15;;
42488;SDS011;28118;52.388;9.452;2022-10-14T06:52:11;40.83;;;29.48;;
42488;SDS011;28118;52.388;9.452;2022-10-14T06:54:38;50.85;;;34.05;;
42488;SDS011;28118;52.388;9.452;2022-10-14T06:57:08;47.40;;;32.25;;
42488;SDS011;28118;52.388;9.452;2022-10-14T06:59:35;38.63;;;30.33;;
42488;SDS011;28118;52.388;9.452;2022-10-14T07:02:04;39.78;;;29.67;;
42488;SDS011;28118;52.388;9.452;2022-10-14T07:04:31;41.72;;;31.55;;
42488;SDS011;28118;52.388;9.452;2022-10-14T07:06:58;50.28;;;34.00;;
42488;SDS011;28118;52.388;9.452;2022-10-14T07:09:25;35.97;;;28.88;;
42488;SDS011;28118;52.388;9.452;2022-10-14T07:11:51;35.70;;;30.73;;
42488;SDS011;28118;52.388;9.452;2022-10-14T07:14:18;44.78;;;33.08;;
42488;SDS011;28118;52.388;9.452;2022-10-14T07:16:45;40.80;;;30.27;;
42488;SDS011;28118;52.388;9.452;2022-10-14T07:19:12;39.92;;;26.27;;
42488;SDS011;28118;52.388;9.452;2022-10-14T07:21:39;48.28;;;35.90;;
42488;SDS011;28118;52.388;9.452;2022-10-14T07:24:08;48.10;;;33.30;;
42488;SDS011;28118;52.388;9.452;2022-10-14T07:26:35;44.83;;;32.45;;
42488;SDS011;28118;52.388;9.452;2022-10-14T07:29:05;49.72;;;33.78;;
42488;SDS011;28118;52.388;9.452;2022-10-14T07:31:32;49.65;;;35.00;;
42488;SDS011;28118;52.388;9.452;2022-10-14T07:34:00;50.38;;;33.67;;
42488;SDS011;28118;52.388;9.452;2022-10-14T07:36:27;60.20;;;37.35;;
42488;SDS011;28118;52.388;9.452;2022-10-14T07:38:54;49.90;;;36.03;;
42488;SDS011;28118;52.388;9.452;2022-10-14T07:41:22;44.42;;;34.65;;
42488;SDS011;28118;52.388;9.452;2022-10-14T07:43:52;54.83;;;38.15;;
42488;SDS011;28118;52.388;9.452;2022-10-14T07:46:24;53.67;;;36.50;;
42488;SDS011;28118;52.388;9.452;2022-10-14T07:49:01;45.20;;;36.25;;
42488;SDS011;28118;52.388;9.452;2022-10-14T07:51:33;54.55;;;36.90;;
42488;SDS011;28118;52.388;9.452;2022-10-14T07:54:02;58.03;;;41.33;;
42488;SDS011;28118;52.388;9.452;2022-10-14T07:56:30;56.90;;;39.10;;
42488;SDS011;28118;52.388;9.452;2022-10-14T07:58:57;72.00;;;48.42;;
42488;SDS011;28118;52.388;9.452;2022-10-14T08:01:24;63.97;;;37.83;;
42488;SDS011;28118;52.388;9.452;2022-10-14T08:03:51;54.25;;;39.13;;
42488;SDS011;28118;52.388;9.452;2022-10-14T08:06:19;65.88;;;41.20;;
42488;SDS011;28118;52.388;9.452;2022-10-14T08:08:46;60.05;;;39.42;;
42488;SDS011;28118;52.388;9.452;2022-10-14T08:11:14;53.92;;;38.20;;
42488;SDS011;28118;52.388;9.452;2022-10-14T08:13:43;50.65;;;33.97;;
42488;SDS011;28118;52.388;9.452;2022-10-14T08:16:16;55.78;;;39.38;;
42488;SDS011;28118;52.388;9.452;2022-10-14T08:19:11;50.95;;;34.58;;
42488;SDS011;28118;52.388;9.452;2022-10-14T08:21:41;51.92;;;33.58;;
42488;SDS011;28118;52.388;9.452;2022-10-14T08:24:08;38.88;;;27.55;;
42488;SDS011;28118;52.388;9.452;2022-10-14T08:26:36;37.72;;;28.38;;
42488;SDS011;28118;52.388;9.452;2022-10-14T08:29:16;36.25;;;25.48;;
42488;SDS011;28118;52.388;9.452;2022-10-14T08:31:42;35.13;;;25.42;;
42488;SDS011;28118;52.388;9.452;2022-10-14T08:34:09;35.25;;;27.23;;
42488;SDS011;28118;52.388;9.452;2022-10-14T08:36:36;36.63;;;21.90;;
42488;SDS011;28118;52.388;9.452;2022-10-14T08:39:03;27.60;;;19.60;;
42488;SDS011;28118;52.388;9.452;2022-10-14T08:46:38;28.13;;;21.42;;
42488;SDS011;28118;52.388;9.452;2022-10-14T08:52:11;23.60;;;16.50;;
42488;SDS011;28118;52.388;9.452;2022-10-14T08:54:39;23.40;;;17.98;;
42488;SDS011;28118;52.388;9.452;2022-10-14T08:57:19;24.50;;;15.55;;
42488;SDS011;28118;52.388;9.452;2022-10-14T08:59:49;20.35;;;16.25;;
42488;SDS011;28118;52.388;9.452;2022-10-14T09:02:21;16.52;;;14.35;;
42488;SDS011;28118;52.388;9.452;2022-10-14T09:05:02;18.60;;;14.65;;
42488;SDS011;28118;52.388;9.452;2022-10-14T09:07:30;21.38;;;16.10;;
42488;SDS011;28118;52.388;9.452;2022-10-14T09:09:59;19.00;;;12.90;;
42488;SDS011;28118;52.388;9.452;2022-10-14T09:12:32;20.70;;;14.70;;
42488;SDS011;28118;52.388;9.452;2022-10-14T09:15:25;17.45;;;13.60;;
42488;SDS011;28118;52.388;9.452;2022-10-14T09:18:05;16.33;;;12.88;;
42488;SDS011;28118;52.388;9.452;2022-10-14T09:20:37;13.10;;;10.80;;
42488;SDS011;28118;52.388;9.452;2022-10-14T09:23:13;19.55;;;12.07;;
42488;SDS011;28118;52.388;9.452;2022-10-14T09:28:34;17.30;;;11.45;;
42488;SDS011;28118;52.388;9.452;2022-10-14T09:31:04;15.90;;;12.73;;
42488;SDS011;28118;52.388;9.452;2022-10-14T09:33:35;17.77;;;12.05;;
42488;SDS011;28118;52.388;9.452;2022-10-14T09:36:26;17.83;;;12.40;;
42488;SDS011;28118;52.388;9.452;2022-10-14T09:38:53;12.52;;;11.25;;
42488;SDS011;28118;52.388;9.452;2022-10-14T09:41:27;18.67;;;14.85;;
42488;SDS011;28118;52.388;9.452;2022-10-14T09:50:41;13.45;;;9.93;;
42488;SDS011;28118;52.388;9.452;2022-10-14T09:55:46;11.57;;;9.35;;
42488;SDS011;28118;52.388;9.452;2022-10-14T09:58:18;11.02;;;9.23;;
42488;SDS011;28118;52.388;9.452;2022-10-14T10:00:56;12.05;;;10.32;;
42488;SDS011;28118;52.388;9.452;2022-10-14T10:03:25;10.63;;;7.38;;
42488;SDS011;28118;52.388;9.452;2022-10-14T10:06:00;12.07;;;9.52;;
42488;SDS011;28118;52.388;9.452;2022-10-14T10:08:33;7.25;;;6.50;;
42488;SDS011;28118;52.388;9.452;2022-10-14T10:11:05;10.73;;;8.88;;
42488;SDS011;28118;52.388;9.452;2022-10-14T10:16:20;10.25;;;7.28;;
42488;SDS011;28118;52.388;9.452;2022-10-14T10:18:49;7.65;;;5.45;;
42488;SDS011;28118;52.388;9.452;2022-10-14T10:21:27;6.05;;;5.45;;
42488;SDS011;28118;52.388;9.452;2022-10-14T10:23:59;6.15;;;4.78;;
42488;SDS011;28118;52.388;9.452;2022-10-14T10:28:59;5.38;;;3.83;;
42488;SDS011;28118;52.388;9.452;2022-10-14T10:36:30;5.95;;;4.45;;
42488;SDS011;28118;52.388;9.452;2022-10-14T10:39:05;8.98;;;4.70;;
42488;SDS011;28118;52.388;9.452;2022-10-14T10:42:58;6.38;;;5.30;;
42488;SDS011;28118;52.388;9.452;2022-10-14T10:47:56;4.43;;;3.47;;
42488;SDS011;28118;52.388;9.452;2022-10-14T10:58:41;3.22;;;2.42;;
42488;SDS011;28118;52.388;9.452;2022-10-14T11:01:13;2.58;;;2.22;;
42488;SDS011;28118;52.388;9.452;2022-10-14T11:06:36;3.05;;;2.67;;
42488;SDS011;28118;52.388;9.452;2022-10-14T11:12:58;4.88;;;2.75;;
42488;SDS011;28118;52.388;9.452;2022-10-14T11:23:50;4.80;;;3.67;;
42488;SDS011;28118;52.388;9.452;2022-10-14T11:34:47;2.80;;;2.22;;
42488;SDS011;28118;52.388;9.452;2022-10-14T11:48:27;3.85;;;3.13;;
42488;SDS011;28118;52.388;9.452;2022-10-14T11:51:01;4.63;;;3.05;;
42488;SDS011;28118;52.388;9.452;2022-10-14T11:53:40;3.10;;;2.15;;
42488;SDS011;28118;52.388;9.452;2022-10-14T12:02:00;3.22;;;2.72;;
42488;SDS011;28118;52.388;9.452;2022-10-14T12:04:36;3.67;;;3.38;;
42488;SDS011;28118;52.388;9.452;2022-10-14T12:07:13;3.47;;;2.55;;
42488;SDS011;28118;52.388;9.452;2022-10-14T12:12:46;2.83;;;2.53;;
42488;SDS011;28118;52.388;9.452;2022-10-14T12:15:17;3.65;;;2.60;;
42488;SDS011;28118;52.388;9.452;2022-10-14T12:17:50;3.13;;;2.60;;
42488;SDS011;28118;52.388;9.452;2022-10-14T12:20:33;3.90;;;2.80;;
42488;SDS011;28118;52.388;9.452;2022-10-14T12:23:21;1.88;;;1.63;;
42488;SDS011;28118;52.388;9.452;2022-10-14T12:28:49;5.13;;;3.50;;
42488;SDS011;28118;52.388;9.452;2022-10-14T12:31:36;2.95;;;2.40;;
42488;SDS011;28118;52.388;9.452;2022-10-14T12:36:37;3.05;;;1.95;;
42488;SDS011;28118;52.388;9.452;2022-10-14T12:41:47;3.78;;;2.35;;
42488;SDS011;28118;52.388;9.452;2022-10-14T12:44:22;2.83;;;2.13;;
42488;SDS011;28118;52.388;9.452;2022-10-14T12:46:53;2.33;;;1.88;;
42488;SDS011;28118;52.388;9.452;2022-10-14T12:51:58;2.83;;;1.85;;
42488;SDS011;28118;52.388;9.452;2022-10-14T12:54:28;3.17;;;1.90;;
42488;SDS011;28118;52.388;9.452;2022-10-14T13:02:11;3.47;;;2.35;;
42488;SDS011;28118;52.388;9.452;2022-10-14T13:04:58;3.67;;;2.40;;
42488;SDS011;28118;52.388;9.452;2022-10-14T13:07:42;3.00;;;2.22;;
42488;SDS011;28118;52.388;9.452;2022-10-14T13:10:25;4.00;;;1.70;;
42488;SDS011;28118;52.388;9.452;2022-10-14T13:18:56;2.83;;;2.22;;
42488;SDS011;28118;52.388;9.452;2022-10-14T13:24:00;2.13;;;1.77;;
42488;SDS011;28118;52.388;9.452;2022-10-14T13:26:44;1.95;;;1.42;;
42488;SDS011;28118;52.388;9.452;2022-10-14T13:31:52;2.50;;;1.65;;
42488;SDS011;28118;52.388;9.452;2022-10-14T13:35:30;3.20;;;2.17;;
42488;SDS011;28118;52.388;9.452;2022-10-14T13:37:42;2.45;;;1.60;;
42488;SDS011;28118;52.388;9.452;2022-10-14T13:40:21;2.80;;;2.22;;
42488;SDS011;28118;52.388;9.452;2022-10-14T13:43:00;2.88;;;2.08;;
42488;SDS011;28118;52.388;9.452;2022-10-14T13:45:34;2.92;;;1.67;;
42488;SDS011;28118;52.388;9.452;2022-10-14T13:48:17;2.70;;;2.20;;
42488;SDS011;28118;52.388;9.452;2022-10-14T13:50:50;9.88;;;2.17;;
42488;SDS011;28118;52.388;9.452;2022-10-14T13:56:38;7.78;;;4.53;;
42488;SDS011;28118;52.388;9.452;2022-10-14T13:59:18;3.17;;;2.72;;
42488;SDS011;28118;52.388;9.452;2022-10-14T14:02:29;1.85;;;1.65;;
42488;SDS011;28118;52.388;9.452;2022-10-14T14:04:56;8.70;;;2.63;;
42488;SDS011;28118;52.388;9.452;2022-10-14T14:07:26;2.63;;;1.92;;
42488;SDS011;28118;52.388;9.452;2022-10-14T14:10:21;3.03;;;1.58;;
42488;SDS011;28118;52.388;9.452;2022-10-14T14:12:49;2.85;;;1.60;;
42488;SDS011;28118;52.388;9.452;2022-10-14T14:15:24;2.75;;;1.65;;
42488;SDS011;28118;52.388;9.452;2022-10-14T14:17:52;2.55;;;1.75;;
42488;SDS011;28118;52.388;9.452;2022-10-14T14:20:23;4.70;;;2.83;;
42488;SDS011;28118;52.388;9.452;2022-10-14T14:22:58;2.50;;;1.15;;
42488;SDS011;28118;52.388;9.452;2022-10-14T14:25:26;1.95;;;1.17;;
42488;SDS011;28118;52.388;9.452;2022-10-14T14:28:01;2.53;;;1.90;;
42488;SDS011;28118;52.388;9.452;2022-10-14T14:30:31;2.85;;;1.58;;
42488;SDS011;28118;52.388;9.452;2022-10-14T14:33:03;3.45;;;2.05;;
42488;SDS011;28118;52.388;9.452;2022-10-14T14:35:37;2.50;;;2.00;;
42488;SDS011;28118;52.388;9.452;2022-10-14T14:38:03;6.45;;;1.65;;
42488;SDS011;28118;52.388;9.452;2022-10-14T14:40:48;2.42;;;2.17;;
42488;SDS011;28118;52.388;9.452;2022-10-14T14:43:26;2.90;;;1.95;;
42488;SDS011;28118;52.388;9.452;2022-10-14T14:46:01;3.45;;;3.10;;
42488;SDS011;28118;52.388;9.452;2022-10-14T14:48:28;3.85;;;2.25;;
42488;SDS011;28118;52.388;9.452;2022-10-14T14:50:57;2.33;;;1.77;;
42488;SDS011;28118;52.388;9.452;2022-10-14T14:53:25;3.10;;;2.30;;
42488;SDS011;28118;52.388;9.452;2022-10-14T15:01:19;4.13;;;2.22;;
42488;SDS011;28118;52.388;9.452;2022-10-14T15:03:57;2.80;;;2.55;;
42488;SDS011;28118;52.388;9.452;2022-10-14T15:06:40;3.65;;;2.67;;
42488;SDS011;28118;52.388;9.452;2022-10-14T15:09:19;3.45;;;3.15;;
42488;SDS011;28118;52.388;9.452;2022-10-14T15:11:50;3.00;;;2.20;;
42488;SDS011;28118;52.388;9.452;2022-10-14T15:14:33;2.83;;;2.40;;
42488;SDS011;28118;52.388;9.452;2022-10-14T15:22:54;2.35;;;1.95;;
42488;SDS011;28118;52.388;9.452;2022-10-14T15:25:21;2.38;;;2.17;;
42488;SDS011;28118;52.388;9.452;2022-10-14T15:27:51;4.97;;;2.45;;
42488;SDS011;28118;52.388;9.452;2022-10-14T15:32:58;3.85;;;3.03;;
42488;SDS011;28118;52.388;9.452;2022-10-14T15:35:28;3.95;;;3.55;;
42488;SDS011;28118;52.388;9.452;2022-10-14T15:37:55;3.88;;;3.35;;
42488;SDS011;28118;52.388;9.452;2022-10-14T15:40:26;3.90;;;3.45;;
42488;SDS011;28118;52.388;9.452;2022-10-14T15:42:55;3.90;;;3.38;;
42488;SDS011;28118;52.388;9.452;2022-10-14T15:45:23;10.45;;;8.23;;
42488;SDS011;28118;52.388;9.452;2022-10-14T15:47:54;8.02;;;6.55;;
42488;SDS011;28118;52.388;9.452;2022-10-14T15:50:27;3.55;;;3.15;;
42488;SDS011;28118;52.388;9.452;2022-10-14T15:52:54;4.70;;;3.72;;
42488;SDS011;28118;52.388;9.452;2022-10-14T15:55:23;6.65;;;4.65;;
42488;SDS011;28118;52.388;9.452;2022-10-14T15:57:51;4.85;;;3.90;;
42488;SDS011;28118;52.388;9.452;2022-10-14T16:00:19;8.52;;;5.18;;
42488;SDS011;28118;52.388;9.452;2022-10-14T16:02:48;4.35;;;3.38;;
42488;SDS011;28118;52.388;9.452;2022-10-14T16:05:20;5.70;;;3.83;;
42488;SDS011;28118;52.388;9.452;2022-10-14T16:07:47;6.85;;;4.32;;
42488;SDS011;28118;52.388;9.452;2022-10-14T16:10:16;4.07;;;3.47;;
42488;SDS011;28118;52.388;9.452;2022-10-14T16:12:45;6.82;;;4.18;;
42488;SDS011;28118;52.388;9.452;2022-10-14T16:17:47;6.72;;;4.90;;
42488;SDS011;28118;52.388;9.452;2022-10-14T16:20:18;4.90;;;4.35;;
42488;SDS011;28118;52.388;9.452;2022-10-14T16:22:46;6.63;;;4.78;;
42488;SDS011;28118;52.388;9.452;2022-10-14T16:25:34;4.78;;;4.20;;
42488;SDS011;28118;52.388;9.452;2022-10-14T16:28:06;5.20;;;4.72;;
42488;SDS011;28118;52.388;9.452;2022-10-14T16:30:36;4.65;;;3.30;;
42488;SDS011;28118;52.388;9.452;2022-10-14T16:33:05;6.00;;;5.05;;
42488;SDS011;28118;52.388;9.452;2022-10-14T16:35:32;6.05;;;5.45;;
42488;SDS011;28118;52.388;9.452;2022-10-14T16:37:58;7.20;;;6.15;;
42488;SDS011;28118;52.388;9.452;2022-10-14T16:40:25;5.70;;;4.43;;
42488;SDS011;28118;52.388;9.452;2022-10-14T16:42:51;6.00;;;5.47;;
42488;SDS011;28118;52.388;9.452;2022-10-14T16:45:18;6.93;;;5.07;;
42488;SDS011;28118;52.388;9.452;2022-10-14T16:47:45;8.07;;;5.20;;
42488;SDS011;28118;52.388;9.452;2022-10-14T16:50:12;6.85;;;4.57;;
42488;SDS011;28118;52.388;9.452;2022-10-14T16:52:39;7.82;;;5.32;;
42488;SDS011;28118;52.388;9.452;2022-10-14T16:55:30;6.65;;;5.57;;
42488;SDS011;28118;52.388;9.452;2022-10-14T16:57:56;11.45;;;4.65;;
42488;SDS011;28118;52.388;9.452;2022-10-14T17:00:23;10.77;;;4.90;;
42488;SDS011;28118;52.388;9.452;2022-10-14T17:02:50;4.32;;;3.78;;
42488;SDS011;28118;52.388;9.452;2022-10-14T17:05:17;6.55;;;5.03;;
42488;SDS011;28118;52.388;9.452;2022-10-14T17:07:43;6.10;;;4.35;;
42488;SDS011;28118;52.388;9.452;2022-10-14T17:10:10;5.13;;;4.63;;
42488;SDS011;28118;52.388;9.452;2022-10-14T17:12:37;6.97;;;5.28;;
42488;SDS011;28118;52.388;9.452;2022-10-14T17:15:04;9.88;;;7.07;;
42488;SDS011;28118;52.388;9.452;2022-10-14T17:17:31;5.60;;;4.40;;
42488;SDS011;28118;52.388;9.452;2022-10-14T17:19:58;5.95;;;5.35;;
42488;SDS011;28118;52.388;9.452;2022-10-14T17:22:24;6.43;;;5.82;;